Falken — SBCH — position and weather

sailwx.info

Track history (hours):
 
Tides and Currents Weather Stations Pressure Air Temp Water Temp Dewpoint Dewpoint Depression Visibility Wind Speed Wind Dir Waves Ship Positions

Falken (Sweden)

Last reported at 2014-Sep-16 09:09 UTC. Time now 2014-Sep-18 17:47 UTC.
Position N 49°45' W 002°10'.

Length 40 m; draft 4.2 m.

Type: Sailing vessel. MMSI: 265070000.

Date/timePositionNaut miles runAvg speedWind from/ knotsBaromVisibWave heightAir tempDewpointWater temp
2014-Sep-16 09:09N 49°45' W 002°10'1 2.4
2014-Sep-16 08:33N 49°46' W 002°09'0 0.1
2014-Sep-16 07:33N 49°46' W 002°09'61 2.0
2014-Sep-15 00:32N 50°31' W 001°06'2 2.2
2014-Sep-14 23:33N 50°33' W 001°03'14 4.6
2014-Sep-14 20:31N 50°31' W 000°41'7 7.3
2014-Sep-14 19:34N 50°36' W 000°34'6 6.3
2014-Sep-14 18:34N 50°40' W 000°26'8 7.8
2014-Sep-14 17:34N 50°39' W 000°14'9 7.8
2014-Sep-14 16:24N 50°39' E 000°00'7 7.3
2014-Sep-14 15:30N 50°40' E 000°11'7 7.7
2014-Sep-14 14:34N 50°40' E 000°22'6 6.4
2014-Sep-14 13:33N 50°41' E 000°32'5 5.2
2014-Sep-14 12:34N 50°43' E 000°40'6 5.5
2014-Sep-14 11:34N 50°47' E 000°46'6 6.5
2014-Sep-14 10:33N 50°51' E 000°54'11 7.4
2014-Sep-14 09:08N 50°60' E 001°04'12 7.6
2014-Sep-14 07:33N 51°05' E 001°21'6 6.0
2014-Sep-14 06:33N 51°07' E 001°29'3 3.4
2014-Sep-14 05:33N 51°09' E 001°34'3 2.6
2014-Sep-14 04:34N 51°11' E 001°36'2 2.1
2014-Sep-14 03:34N 51°13' E 001°39'4 3.7
2014-Sep-14 02:34N 51°12' E 001°44'6 5.5
2014-Sep-14 01:34N 51°17' E 001°47'35 8.7
2014-Sep-13 21:33N 51°50' E 002°07'8 7.9
2014-Sep-13 20:30N 51°58' E 002°10'6 6.2
2014-Sep-13 19:34N 52°04' E 002°12'73 5.5
2014-Sep-13 06:17N 52°59' E 003°31'4 5.0
2014-Sep-13 05:32N 52°60' E 003°37'28 5.3
2014-Sep-13 00:11N 53°17' E 004°14'4 6.0
2014-Sep-12 23:31N 53°20' E 004°17'29 4.8
2014-Sep-12 17:27N 53°38' E 004°56'7 8.2
2014-Sep-12 16:34N 53°40' E 005°08'8 8.0
2014-Sep-12 15:34N 53°42' E 005°21'7 6.9
2014-Sep-12 14:34N 53°44' E 005°32'6 5.8
2014-Sep-12 13:30N 53°46' E 005°42'5 5.0
2014-Sep-12 12:33N 53°47' E 005°50'5 4.9
2014-Sep-12 11:29N 53°48' E 005°58'52 3.9
2014-Sep-11 22:17N 54°01' E 007°24'2 2.5
2014-Sep-11 21:34N 54°00' E 007°27'3 2.8
2014-Sep-11 20:33N 54°00' E 007°32'3 3.4
2014-Sep-11 19:34N 54°01' E 007°37'5 5.0
2014-Sep-11 18:33N 54°01' E 007°46'6 6.0
2014-Sep-11 17:33N 54°01' E 007°56'7 6.6
2014-Sep-11 16:34N 54°01' E 008°07'7 7.1
2014-Sep-11 15:34N 53°60' E 008°19'6 5.9
2014-Sep-11 14:34N 53°59' E 008°29'5 4.8
2014-Sep-11 13:34N 53°58' E 008°37'4 3.9
2014-Sep-11 12:33N 53°55' E 008°41'5 4.9
2014-Sep-11 11:34N 53°51' E 008°47'6 5.5
2014-Sep-11 10:33N 53°51' E 008°56'8 7.8
2014-Sep-11 09:34N 53°53' E 009°08'0 0.5
2014-Sep-11 08:34N 53°54' E 009°09'0 0.5
2014-Sep-11 07:33N 53°54' E 009°10'8 8.4
2014-Sep-11 06:33N 54°01' E 009°18'8 8.4
2014-Sep-11 05:33N 54°09' E 009°22'7 7.0
2014-Sep-11 04:32N 54°12' E 009°33'2 2.5
2014-Sep-11 03:33N 54°14' E 009°36'70 4.9
2014-Sep-10 13:15N 54°29' E 011°33'4 2.1
2014-Sep-10 11:33N 54°25' E 011°35'3 3.0
2014-Sep-10 10:33N 54°27' E 011°40'2 2.0
2014-Sep-10 09:33N 54°25' E 011°40'2 1.8
2014-Sep-10 08:33N 54°23' E 011°42'5 5.1
2014-Sep-10 07:33N 54°26' E 011°49'5 5.2
2014-Sep-10 06:33N 54°27' E 011°58'8 7.7
2014-Sep-10 05:33N 54°29' E 012°10'9 8.7
2014-Sep-10 04:31N 54°38' E 012°15'55 6.9
2014-Sep-09 20:33N 55°12' E 013°28'5 5.0
2014-Sep-09 19:33N 55°16' E 013°34'5 5.3
2014-Sep-09 18:33N 55°20' E 013°40'4 4.2
2014-Sep-09 17:33N 55°19' E 013°46'3 3.0
2014-Sep-09 16:33N 55°18' E 013°52'5 4.9
2014-Sep-09 15:33N 55°23' E 013°53'5 5.2
2014-Sep-09 14:33N 55°20' E 014°01'5 5.4
2014-Sep-09 13:33N 55°17' E 014°08'4 3.6
2014-Sep-09 12:33N 55°16' E 014°14'5 5.5
2014-Sep-09 11:33N 55°21' E 014°17'3 3.3
2014-Sep-09 10:33N 55°21' E 014°22'6 6.0
2014-Sep-09 09:33N 55°27' E 014°21'5 4.7
2014-Sep-09 08:33N 55°26' E 014°29'6 5.6
2014-Sep-09 07:33N 55°31' E 014°30'4 4.1
2014-Sep-09 06:33N 55°33' E 014°37'5 5.4
2014-Sep-09 05:33N 55°31' E 014°46'6 6.3
2014-Sep-09 04:33N 55°37' E 014°51'6 6.1
2014-Sep-09 03:34N 55°43' E 014°55'5 4.5
2014-Sep-09 02:33N 55°46' E 015°00'7 7.4
2014-Sep-09 01:33N 55°41' E 015°10'7 7.4
2014-Sep-09 00:33N 55°36' E 015°19'7 7.0
2014-Sep-08 23:32N 55°31' E 015°28'7 6.8
2014-Sep-08 22:33N 55°38' E 015°30'7 7.0
2014-Sep-08 21:33N 55°45' E 015°32'6 5.9
2014-Sep-08 20:33N 55°50' E 015°33'6 5.9
2014-Sep-08 19:34N 55°56' E 015°33'6 5.9
2014-Sep-08 18:34N 56°02' E 015°34'6 6.2
2014-Sep-08 17:34N 56°08' E 015°36'1 1.1
2014-Sep-08 16:33N 56°09' E 015°35'0 0.0
2014-Sep-08 15:33N 56°09' E 015°35'0 0.0
2014-Sep-08 14:33N 56°09' E 015°35'0 0.0
2014-Sep-08 13:30N 56°09' E 015°35'0 0.0
2014-Sep-08 12:32N 56°09' E 015°35'0 0.0
2014-Sep-08 11:33N 56°09' E 015°35'0 0.0
2014-Sep-08 10:33N 56°09' E 015°35'0 0.0
2014-Sep-08 09:33N 56°09' E 015°35'0 0.0
2014-Sep-08 08:33N 56°09' E 015°35'0 0.0
2014-Sep-08 07:33N 56°09' E 015°35'0 0.0
2014-Sep-08 06:33N 56°09' E 015°35'0 0.0
2014-Sep-08 05:33N 56°09' E 015°35'0 0.0
2014-Sep-08 04:32N 56°09' E 015°35'0 0.0
2014-Sep-08 03:33N 56°09' E 015°35'0 0.0
2014-Sep-08 02:33N 56°09' E 015°35'0 0.0
2014-Sep-08 01:33N 56°09' E 015°35'0 0.0
2014-Sep-08 00:33N 56°09' E 015°35'0 0.0
2014-Sep-07 23:33N 56°09' E 015°35'0 0.0
2014-Sep-07 22:33N 56°09' E 015°35'0 0.0
2014-Sep-07 21:33N 56°09' E 015°35'0 0.0
2014-Sep-07 20:32N 56°09' E 015°35'0 0.0
2014-Sep-07 19:32N 56°09' E 015°35'0 0.0
2014-Sep-07 18:32N 56°09' E 015°35'0 0.0
2014-Sep-07 17:30N 56°09' E 015°35'0 0.0
2014-Sep-07 16:32N 56°09' E 015°35'0 0.0
2014-Sep-07 15:32N 56°09' E 015°35'0 0.0
2014-Sep-07 14:32N 56°09' E 015°35'0 0.0
2014-Sep-07 13:32N 56°09' E 015°35'0 0.0
2014-Sep-07 12:33N 56°09' E 015°35'0 0.0
2014-Sep-07 11:33N 56°09' E 015°35'0 0.0
2014-Sep-07 10:32N 56°09' E 015°35'0 0.0
2014-Sep-07 09:33N 56°09' E 015°35'0 0.0
2014-Sep-07 08:32N 56°09' E 015°35'0 0.0
2014-Sep-07 07:33N 56°09' E 015°35'0 0.0
2014-Sep-07 06:33N 56°09' E 015°35'0 0.0
2014-Sep-07 05:33N 56°09' E 015°35'0 0.0
2014-Sep-07 04:32N 56°09' E 015°35'0 0.0
2014-Sep-07 03:33N 56°09' E 015°35'0 0.0
2014-Sep-07 02:32N 56°09' E 015°35'0 0.0
2014-Sep-07 01:33N 56°09' E 015°35'0 0.0
2014-Sep-07 00:30N 56°09' E 015°35'0 0.0
2014-Sep-06 23:33N 56°09' E 015°35'0 0.0
2014-Sep-06 22:33N 56°09' E 015°35'0 0.0
2014-Sep-06 21:33N 56°09' E 015°35'0 0.0
2014-Sep-06 20:33N 56°09' E 015°35'0 0.0
2014-Sep-06 19:30N 56°09' E 015°35'0 0.0
2014-Sep-06 18:33N 56°09' E 015°35'0 0.0
2014-Sep-06 17:32N 56°09' E 015°35'0 0.0
2014-Sep-06 16:33N 56°09' E 015°35'0 0.0
2014-Sep-06 15:33N 56°09' E 015°35'0 0.0
2014-Sep-06 14:33N 56°09' E 015°35'0 0.0
2014-Sep-06 13:33N 56°09' E 015°35'0 0.0
2014-Sep-06 12:32N 56°09' E 015°35'0 0.0
2014-Sep-06 11:33N 56°09' E 015°35'0 0.0
2014-Sep-06 10:32N 56°09' E 015°35'0 0.0
2014-Sep-06 09:33N 56°09' E 015°35'  
Track history (hours):
 
Tides and Currents Weather Stations Pressure Air Temp Water Temp Dewpoint Dewpoint Depression Visibility Wind Speed Wind Dir Waves Ship Positions

Falken (Sweden)

Last reported at 2014-Sep-16 09:09 UTC. Time now 2014-Sep-18 17:47 UTC.
Position N 49°45' W 002°10'.

Length 40 m; draft 4.2 m.

Type: Sailing vessel. MMSI: 265070000.

Date/timePositionNaut miles runAvg speedWind from/ knotsBaromVisibWave heightAir tempDewpointWater temp
2014-Sep-16 09:09N 49°45' W 002°10'1 2.4
2014-Sep-16 08:33N 49°46' W 002°09'0 0.1
2014-Sep-16 07:33N 49°46' W 002°09'61 2.0
2014-Sep-15 00:32N 50°31' W 001°06'2 2.2
2014-Sep-14 23:33N 50°33' W 001°03'14 4.6
2014-Sep-14 20:31N 50°31' W 000°41'7 7.3
2014-Sep-14 19:34N 50°36' W 000°34'6 6.3
2014-Sep-14 18:34N 50°40' W 000°26'8 7.8
2014-Sep-14 17:34N 50°39' W 000°14'9 7.8
2014-Sep-14 16:24N 50°39' E 000°00'7 7.3
2014-Sep-14 15:30N 50°40' E 000°11'7 7.7
2014-Sep-14 14:34N 50°40' E 000°22'6 6.4
2014-Sep-14 13:33N 50°41' E 000°32'5 5.2
2014-Sep-14 12:34N 50°43' E 000°40'6 5.5
2014-Sep-14 11:34N 50°47' E 000°46'6 6.5
2014-Sep-14 10:33N 50°51' E 000°54'11 7.4
2014-Sep-14 09:08N 50°60' E 001°04'12 7.6
2014-Sep-14 07:33N 51°05' E 001°21'6 6.0
2014-Sep-14 06:33N 51°07' E 001°29'3 3.4
2014-Sep-14 05:33N 51°09' E 001°34'3 2.6
2014-Sep-14 04:34N 51°11' E 001°36'2 2.1
2014-Sep-14 03:34N 51°13' E 001°39'4 3.7
2014-Sep-14 02:34N 51°12' E 001°44'6 5.5
2014-Sep-14 01:34N 51°17' E 001°47'35 8.7
2014-Sep-13 21:33N 51°50' E 002°07'8 7.9
2014-Sep-13 20:30N 51°58' E 002°10'6 6.2
2014-Sep-13 19:34N 52°04' E 002°12'73 5.5
2014-Sep-13 06:17N 52°59' E 003°31'4 5.0
2014-Sep-13 05:32N 52°60' E 003°37'28 5.3
2014-Sep-13 00:11N 53°17' E 004°14'4 6.0
2014-Sep-12 23:31N 53°20' E 004°17'29 4.8
2014-Sep-12 17:27N 53°38' E 004°56'7 8.2
2014-Sep-12 16:34N 53°40' E 005°08'8 8.0
2014-Sep-12 15:34N 53°42' E 005°21'7 6.9
2014-Sep-12 14:34N 53°44' E 005°32'6 5.8
2014-Sep-12 13:30N 53°46' E 005°42'5 5.0
2014-Sep-12 12:33N 53°47' E 005°50'5 4.9
2014-Sep-12 11:29N 53°48' E 005°58'52 3.9
2014-Sep-11 22:17N 54°01' E 007°24'2 2.5
2014-Sep-11 21:34N 54°00' E 007°27'3 2.8
2014-Sep-11 20:33N 54°00' E 007°32'3 3.4
2014-Sep-11 19:34N 54°01' E 007°37'5 5.0
2014-Sep-11 18:33N 54°01' E 007°46'6 6.0
2014-Sep-11 17:33N 54°01' E 007°56'7 6.6
2014-Sep-11 16:34N 54°01' E 008°07'7 7.1
2014-Sep-11 15:34N 53°60' E 008°19'6 5.9
2014-Sep-11 14:34N 53°59' E 008°29'5 4.8
2014-Sep-11 13:34N 53°58' E 008°37'4 3.9
2014-Sep-11 12:33N 53°55' E 008°41'5 4.9
2014-Sep-11 11:34N 53°51' E 008°47'6 5.5
2014-Sep-11 10:33N 53°51' E 008°56'8 7.8
2014-Sep-11 09:34N 53°53' E 009°08'0 0.5
2014-Sep-11 08:34N 53°54' E 009°09'0 0.5
2014-Sep-11 07:33N 53°54' E 009°10'8 8.4
2014-Sep-11 06:33N 54°01' E 009°18'8 8.4
2014-Sep-11 05:33N 54°09' E 009°22'7 7.0
2014-Sep-11 04:32N 54°12' E 009°33'2 2.5
2014-Sep-11 03:33N 54°14' E 009°36'70 4.9
2014-Sep-10 13:15N 54°29' E 011°33'4 2.1
2014-Sep-10 11:33N 54°25' E 011°35'3 3.0
2014-Sep-10 10:33N 54°27' E 011°40'2 2.0
2014-Sep-10 09:33N 54°25' E 011°40'2 1.8
2014-Sep-10 08:33N 54°23' E 011°42'5 5.1
2014-Sep-10 07:33N 54°26' E 011°49'5 5.2
2014-Sep-10 06:33N 54°27' E 011°58'8 7.7
2014-Sep-10 05:33N 54°29' E 012°10'9 8.7
2014-Sep-10 04:31N 54°38' E 012°15'55 6.9
2014-Sep-09 20:33N 55°12' E 013°28'5 5.0
2014-Sep-09 19:33N 55°16' E 013°34'5 5.3
2014-Sep-09 18:33N 55°20' E 013°40'4 4.2
2014-Sep-09 17:33N 55°19' E 013°46'3 3.0
2014-Sep-09 16:33N 55°18' E 013°52'5 4.9
2014-Sep-09 15:33N 55°23' E 013°53'5 5.2
2014-Sep-09 14:33N 55°20' E 014°01'5 5.4
2014-Sep-09 13:33N 55°17' E 014°08'4 3.6
2014-Sep-09 12:33N 55°16' E 014°14'5 5.5
2014-Sep-09 11:33N 55°21' E 014°17'3 3.3
2014-Sep-09 10:33N 55°21' E 014°22'6 6.0
2014-Sep-09 09:33N 55°27' E 014°21'5 4.7
2014-Sep-09 08:33N 55°26' E 014°29'6 5.6
2014-Sep-09 07:33N 55°31' E 014°30'4 4.1
2014-Sep-09 06:33N 55°33' E 014°37'5 5.4
2014-Sep-09 05:33N 55°31' E 014°46'6 6.3
2014-Sep-09 04:33N 55°37' E 014°51'6 6.1
2014-Sep-09 03:34N 55°43' E 014°55'5 4.5
2014-Sep-09 02:33N 55°46' E 015°00'7 7.4
2014-Sep-09 01:33N 55°41' E 015°10'7 7.4
2014-Sep-09 00:33N 55°36' E 015°19'7 7.0
2014-Sep-08 23:32N 55°31' E 015°28'7 6.8
2014-Sep-08 22:33N 55°38' E 015°30'7 7.0
2014-Sep-08 21:33N 55°45' E 015°32'6 5.9
2014-Sep-08 20:33N 55°50' E 015°33'6 5.9
2014-Sep-08 19:34N 55°56' E 015°33'6 5.9
2014-Sep-08 18:34N 56°02' E 015°34'6 6.2
2014-Sep-08 17:34N 56°08' E 015°36'1 1.1
2014-Sep-08 16:33N 56°09' E 015°35'0 0.0
2014-Sep-08 15:33N 56°09' E 015°35'0 0.0
2014-Sep-08 14:33N 56°09' E 015°35'0 0.0
2014-Sep-08 13:30N 56°09' E 015°35'0 0.0
2014-Sep-08 12:32N 56°09' E 015°35'0 0.0
2014-Sep-08 11:33N 56°09' E 015°35'0 0.0
2014-Sep-08 10:33N 56°09' E 015°35'0 0.0
2014-Sep-08 09:33N 56°09' E 015°35'0 0.0
2014-Sep-08 08:33N 56°09' E 015°35'0 0.0
2014-Sep-08 07:33N 56°09' E 015°35'0 0.0
2014-Sep-08 06:33N 56°09' E 015°35'0 0.0
2014-Sep-08 05:33N 56°09' E 015°35'0 0.0
2014-Sep-08 04:32N 56°09' E 015°35'0 0.0
2014-Sep-08 03:33N 56°09' E 015°35'0 0.0
2014-Sep-08 02:33N 56°09' E 015°35'0 0.0
2014-Sep-08 01:33N 56°09' E 015°35'0 0.0
2014-Sep-08 00:33N 56°09' E 015°35'0 0.0
2014-Sep-07 23:33N 56°09' E 015°35'0 0.0
2014-Sep-07 22:33N 56°09' E 015°35'0 0.0
2014-Sep-07 21:33N 56°09' E 015°35'0 0.0
2014-Sep-07 20:32N 56°09' E 015°35'0 0.0
2014-Sep-07 19:32N 56°09' E 015°35'0 0.0
2014-Sep-07 18:32N 56°09' E 015°35'0 0.0
2014-Sep-07 17:30N 56°09' E 015°35'0 0.0
2014-Sep-07 16:32N 56°09' E 015°35'0 0.0
2014-Sep-07 15:32N 56°09' E 015°35'0 0.0
2014-Sep-07 14:32N 56°09' E 015°35'0 0.0
2014-Sep-07 13:32N 56°09' E 015°35'0 0.0
2014-Sep-07 12:33N 56°09' E 015°35'0 0.0
2014-Sep-07 11:33N 56°09' E 015°35'0 0.0
2014-Sep-07 10:32N 56°09' E 015°35'0 0.0
2014-Sep-07 09:33N 56°09' E 015°35'0 0.0
2014-Sep-07 08:32N 56°09' E 015°35'0 0.0
2014-Sep-07 07:33N 56°09' E 015°35'0 0.0
2014-Sep-07 06:33N 56°09' E 015°35'0 0.0
2014-Sep-07 05:33N 56°09' E 015°35'0 0.0
2014-Sep-07 04:32N 56°09' E 015°35'0 0.0
2014-Sep-07 03:33N 56°09' E 015°35'0 0.0
2014-Sep-07 02:32N 56°09' E 015°35'0 0.0
2014-Sep-07 01:33N 56°09' E 015°35'0 0.0
2014-Sep-07 00:30N 56°09' E 015°35'0 0.0
2014-Sep-06 23:33N 56°09' E 015°35'0 0.0
2014-Sep-06 22:33N 56°09' E 015°35'0 0.0
2014-Sep-06 21:33N 56°09' E 015°35'0 0.0
2014-Sep-06 20:33N 56°09' E 015°35'0 0.0
2014-Sep-06 19:30N 56°09' E 015°35'0 0.0
2014-Sep-06 18:33N 56°09' E 015°35'0 0.0
2014-Sep-06 17:32N 56°09' E 015°35'0 0.0
2014-Sep-06 16:33N 56°09' E 015°35'0 0.0
2014-Sep-06 15:33N 56°09' E 015°35'0 0.0
2014-Sep-06 14:33N 56°09' E 015°35'0 0.0
2014-Sep-06 13:33N 56°09' E 015°35'0 0.0
2014-Sep-06 12:32N 56°09' E 015°35'0 0.0
2014-Sep-06 11:33N 56°09' E 015°35'0 0.0
2014-Sep-06 10:32N 56°09' E 015°35'0 0.0
2014-Sep-06 09:33N 56°09' E 015°35'  

Dump ship's entire track history